createdAt,value
2023-05-25T00:00:19.436Z,68.389893
2023-05-25T00:01:28.083Z,68.695068
2023-05-25T00:02:37.831Z,68.353271
2023-05-25T00:03:46.521Z,68.896484
2023-05-25T00:04:55.068Z,68.389893
2023-05-25T00:06:02.728Z,69.0979
2023-05-25T00:07:11.367Z,69.506836
2023-05-25T00:08:21.025Z,69.20166
2023-05-25T00:09:29.692Z,69.000244
2023-05-25T00:10:38.327Z,69.0979
2023-05-25T00:11:47.999Z,69.0979
2023-05-25T00:12:57.653Z,69.299316
2023-05-25T00:14:07.305Z,69.0979
2023-05-25T00:15:14.939Z,69.0979
2023-05-25T00:16:22.678Z,69.299316
2023-05-25T00:17:32.315Z,69.604492
2023-05-25T00:18:40.885Z,69.708252
2023-05-25T00:19:49.571Z,69.812012
2023-05-25T00:20:58.190Z,69.812012
2023-05-25T00:22:06.851Z,70.013428
2023-05-25T00:23:16.516Z,70.111084
2023-05-25T00:24:25.164Z,70.349121
2023-05-25T00:25:34.963Z,70.550537
2023-05-25T00:26:44.473Z,70.855713
2023-05-25T00:27:53.129Z,70.623779
2023-05-25T00:29:01.772Z,70.721436
2023-05-25T00:30:10.433Z,70.52002
2023-05-25T00:31:19.117Z,70.41626
2023-05-25T00:32:28.754Z,70.214844
2023-05-25T00:33:36.381Z,70.349121
2023-05-25T00:34:44.017Z,70.52002
2023-05-25T00:35:53.670Z,70.41626
2023-05-25T00:37:03.325Z,71.026611
2023-05-25T00:38:12.996Z,70.623779
2023-05-25T00:39:21.691Z,70.721436
2023-05-25T00:40:30.276Z,70.922852
2023-05-25T00:41:39.994Z,71.77124
2023-05-25T00:42:48.608Z,71.942139
2023-05-25T00:43:57.265Z,71.942139
2023-05-25T00:45:06.934Z,71.838379
2023-05-25T00:46:15.646Z,71.875
2023-05-25T00:47:24.258Z,71.331787
2023-05-25T00:48:32.860Z,71.264648
2023-05-25T00:49:41.556Z,71.130371
2023-05-25T00:50:51.197Z,71.026611
2023-05-25T00:51:58.839Z,71.435547
2023-05-25T00:53:06.532Z,71.130371
2023-05-25T00:54:16.192Z,71.466064
2023-05-25T00:55:25.817Z,71.362305
2023-05-25T00:56:34.534Z,71.228027
2023-05-25T00:57:44.202Z,71.435547
2023-05-25T00:58:53.811Z,71.264648
2023-05-25T01:00:03.461Z,70.855713
2023-05-25T01:01:11.121Z,71.466064
2023-05-25T01:02:19.895Z,71.734619
2023-05-25T01:03:29.551Z,71.533203
2023-05-25T01:04:37.100Z,71.942139
2023-05-25T01:05:46.741Z,71.636963
2023-05-25T01:06:55.406Z,71.636963
2023-05-25T01:08:04.094Z,71.228027
2023-05-25T01:09:12.749Z,71.66748
2023-05-25T01:10:22.408Z,71.569824
2023-05-25T01:11:32.052Z,71.875
2023-05-25T01:12:39.688Z,71.972656
2023-05-25T01:13:49.431Z,71.942139
2023-05-25T01:14:59.065Z,72.247314
2023-05-25T01:16:07.749Z,72.143555
2023-05-25T01:17:16.346Z,72.143555
2023-05-25T01:18:25.006Z,71.838379
2023-05-25T01:20:09.384Z,71.838379
2023-05-25T01:21:09.291Z,71.533203
2023-05-25T01:22:18.964Z,71.838379
2023-05-25T01:23:28.698Z,71.838379
2023-05-25T01:24:38.354Z,71.801758
2023-05-25T01:25:47.064Z,71.801758
2023-05-25T01:26:54.715Z,71.838379
2023-05-25T01:28:04.413Z,72.039795
2023-05-25T01:29:14.153Z,72.210693
2023-05-25T01:30:22.784Z,72.412109
2023-05-25T01:31:31.459Z,72.412109
2023-05-25T01:32:41.100Z,72.009277
2023-05-25T01:33:50.781Z,72.247314
2023-05-25T01:34:59.448Z,72.143555
2023-05-25T01:36:08.122Z,72.546387
2023-05-25T01:37:17.802Z,72.851562
2023-05-25T01:38:27.505Z,72.955322
2023-05-25T01:39:36.192Z,73.498535
2023-05-25T01:40:44.848Z,73.901367
2023-05-25T01:41:53.498Z,74.615479
2023-05-25T01:43:03.195Z,74.377441
2023-05-25T01:44:11.888Z,74.475098
2023-05-25T01:45:21.603Z,74.273682
2023-05-25T01:46:31.297Z,74.377441
2023-05-25T01:47:40.940Z,74.682617
2023-05-25T01:48:49.575Z,74.682617
2023-05-25T01:49:58.244Z,74.780273
2023-05-25T01:51:06.886Z,74.780273
2023-05-25T01:52:16.622Z,75.085449
2023-05-25T01:53:24.216Z,75.085449
2023-05-25T01:54:32.875Z,75.085449
2023-05-25T01:55:42.741Z,75.494385
2023-05-25T01:56:51.200Z,75.390625
2023-05-25T01:58:00.878Z,75.390625
2023-05-25T01:59:09.531Z,75.494385
2023-05-25T02:00:18.194Z,75.695801
2023-05-25T02:01:28.054Z,75.793457
2023-05-25T02:02:36.521Z,76.239014
2023-05-25T02:03:44.153Z,76.849365
2023-05-25T02:04:53.867Z,76.947021
2023-05-25T02:06:02.518Z,76.947021
2023-05-25T02:07:12.193Z,77.01416
2023-05-25T02:08:20.859Z,77.557373
2023-05-25T02:09:29.549Z,77.862549
2023-05-25T02:10:39.220Z,78.167725
2023-05-25T02:11:47.876Z,78.369141
2023-05-25T02:12:54.533Z,78.674316
2023-05-25T02:14:04.230Z,78.979492
2023-05-25T02:15:12.884Z,79.284668
2023-05-25T02:16:21.633Z,79.180908
2023-05-25T02:17:31.340Z,79.382324
2023-05-25T02:18:40.942Z,79.284668
2023-05-25T02:19:50.635Z,79.248047
2023-05-25T02:20:59.299Z,79.589844
2023-05-25T02:22:06.954Z,79.79126
2023-05-25T02:23:16.686Z,80.499268
2023-05-25T02:24:26.313Z,80.297852
2023-05-25T02:25:35.969Z,80.36499
2023-05-25T02:26:44.641Z,80.26123
2023-05-25T02:27:53.284Z,80.26123
2023-05-25T02:29:03.409Z,80.706787
2023-05-25T02:30:12.020Z,81.213379
2023-05-25T02:31:21.760Z,80.969238
2023-05-25T02:32:31.613Z,81.311035
2023-05-25T02:33:40.335Z,81.57959
2023-05-25T02:34:48.961Z,81.47583
2023-05-25T02:35:57.634Z,81.781006
2023-05-25T02:37:06.320Z,81.781006
2023-05-25T02:38:16.074Z,81.68335
2023-05-25T02:39:23.748Z,81.378174
2023-05-25T02:40:31.410Z,81.57959
2023-05-25T02:41:41.070Z,81.988525
2023-05-25T02:42:49.789Z,81.988525
2023-05-25T02:43:58.434Z,81.988525
2023-05-25T02:45:06.080Z,82.189941
2023-05-25T02:46:15.836Z,81.848145
2023-05-25T02:47:25.486Z,81.848145
2023-05-25T02:48:33.113Z,81.848145
2023-05-25T02:49:42.796Z,82.495117
2023-05-25T02:50:52.431Z,82.897949
2023-05-25T02:52:01.106Z,82.800293
2023-05-25T02:53:09.798Z,82.556152
2023-05-25T02:54:18.509Z,82.452393
2023-05-25T02:55:27.180Z,82.757568
2023-05-25T02:56:36.832Z,83.062744
2023-05-25T02:57:44.501Z,82.958984
2023-05-25T02:58:53.186Z,83.36792
2023-05-25T03:00:02.831Z,83.404541
2023-05-25T03:01:11.530Z,83.813477
2023-05-25T03:02:21.251Z,83.813477
2023-05-25T03:03:30.877Z,83.813477
2023-05-25T03:04:40.509Z,83.813477
2023-05-25T03:05:51.221Z,83.673096
2023-05-25T03:07:00.850Z,83.911133
2023-05-25T03:08:10.501Z,83.874512
2023-05-25T03:09:21.180Z,83.673096
2023-05-25T03:10:30.997Z,83.874512
2023-05-25T03:11:40.683Z,84.320068
2023-05-25T03:12:49.322Z,84.216309
2023-05-25T03:13:58.983Z,84.625244
2023-05-25T03:15:08.112Z,84.625244
2023-05-25T03:16:16.788Z,84.320068
2023-05-25T03:17:26.440Z,84.216309
2023-05-25T03:18:35.102Z,84.625244
2023-05-25T03:19:42.844Z,84.320068
2023-05-25T03:20:52.504Z,84.320068
2023-05-25T03:22:02.202Z,83.978271
2023-05-25T03:23:10.868Z,84.014893
2023-05-25T03:24:19.592Z,84.118652
2023-05-25T03:25:29.231Z,83.770752
2023-05-25T03:26:38.905Z,83.569336
2023-05-25T03:27:46.596Z,83.166504
2023-05-25T03:28:56.360Z,83.166504
2023-05-25T03:30:06.143Z,83.26416
2023-05-25T03:31:14.793Z,83.874512
2023-05-25T03:32:23.618Z,83.612061
2023-05-25T03:33:32.125Z,84.118652
2023-05-25T03:34:41.798Z,83.673096
2023-05-25T03:35:51.485Z,83.36792
2023-05-25T03:37:00.136Z,83.36792
2023-05-25T03:38:09.857Z,83.612061
2023-05-25T03:39:19.448Z,84.118652
2023-05-25T03:40:28.171Z,84.320068
2023-05-25T03:41:36.816Z,83.978271
2023-05-25T03:42:45.543Z,84.58252
2023-05-25T03:43:55.197Z,84.484863
2023-05-25T03:45:04.884Z,84.179688
2023-05-25T03:46:12.556Z,84.58252
2023-05-25T03:47:21.185Z,84.039307
2023-05-25T03:48:30.826Z,83.831787
2023-05-25T03:49:39.484Z,83.227539
2023-05-25T03:50:48.183Z,83.227539
2023-05-25T03:51:56.847Z,83.325195
2023-05-25T03:53:06.545Z,82.922363
2023-05-25T03:54:16.234Z,82.922363
2023-05-25T03:55:24.861Z,82.818604
2023-05-25T03:56:32.544Z,83.123779
2023-05-25T03:57:42.229Z,82.818604
2023-05-25T03:58:50.900Z,82.275391
2023-05-25T03:59:59.536Z,81.970215
2023-05-25T04:01:08.228Z,81.872559
2023-05-25T04:02:17.884Z,81.567383
2023-05-25T04:03:27.574Z,81.768799
2023-05-25T04:04:35.288Z,81.768799
2023-05-25T04:05:44.120Z,81.665039
2023-05-25T04:06:53.568Z,81.427002
2023-05-25T04:08:02.259Z,81.463623
2023-05-25T04:09:10.902Z,81.665039
2023-05-25T04:10:19.568Z,81.768799
2023-05-25T04:11:28.206Z,81.427002
2023-05-25T04:12:37.886Z,81.628418
2023-05-25T04:13:45.540Z,80.92041
2023-05-25T04:14:53.224Z,81.225586
2023-05-25T04:16:02.955Z,81.262207
2023-05-25T04:17:11.593Z,81.628418
2023-05-25T04:18:20.296Z,81.323242
2023-05-25T04:19:28.964Z,80.92041
2023-05-25T04:20:38.692Z,81.225586
2023-05-25T04:21:48.336Z,80.81665
2023-05-25T04:22:57.992Z,80.92041
2023-05-25T04:24:05.660Z,80.578613
2023-05-25T04:25:15.305Z,80.780029
2023-05-25T04:26:23.965Z,80.377197
2023-05-25T04:27:32.625Z,80.273438
2023-05-25T04:28:41.269Z,80.273438
2023-05-25T04:29:49.931Z,80.072021
2023-05-25T04:30:59.604Z,80.175781
2023-05-25T04:32:08.281Z,80.212402
2023-05-25T04:33:15.986Z,80.273438
2023-05-25T04:34:25.640Z,80.310059
2023-05-25T04:35:35.285Z,80.615234
2023-05-25T04:36:43.966Z,80.615234
2023-05-25T04:37:52.642Z,80.981445
2023-05-25T04:39:01.305Z,80.67627
2023-05-25T04:40:10.986Z,80.578613
2023-05-25T04:41:20.671Z,79.968262
2023-05-25T04:42:30.427Z,80.175781
2023-05-25T04:43:40.332Z,80.340576
2023-05-25T04:44:48.726Z,79.833984
2023-05-25T04:45:56.408Z,79.870605
2023-05-25T04:47:06.069Z,79.870605
2023-05-25T04:48:15.753Z,79.968262
2023-05-25T04:49:23.422Z,80.273438
2023-05-25T04:50:31.091Z,80.0354
2023-05-25T04:51:41.308Z,79.528809
2023-05-25T04:52:49.476Z,79.669189
2023-05-25T04:53:58.135Z,79.730225
2023-05-25T04:55:07.779Z,79.626465
2023-05-25T04:56:16.417Z,79.528809
2023-05-25T04:57:26.111Z,80.133057
2023-05-25T04:58:35.823Z,80.133057
2023-05-25T04:59:44.431Z,79.528809
2023-05-25T05:00:52.751Z,79.626465
2023-05-25T05:01:59.750Z,79.528809
2023-05-25T05:03:09.433Z,79.626465
2023-05-25T05:04:19.048Z,79.083252
2023-05-25T05:05:27.739Z,79.455566
2023-05-25T05:06:37.407Z,78.78418
2023-05-25T05:07:46.099Z,79.589844
2023-05-25T05:08:55.754Z,78.881836
2023-05-25T05:10:03.412Z,79.046631
2023-05-25T05:11:12.146Z,78.643799
2023-05-25T05:12:21.784Z,78.747559
2023-05-25T05:13:30.443Z,78.68042
2023-05-25T05:14:40.164Z,78.985596
2023-05-25T05:15:49.799Z,79.187012
2023-05-25T05:16:58.631Z,79.290771
2023-05-25T05:18:08.207Z,79.083252
2023-05-25T05:19:17.867Z,78.845215
2023-05-25T05:20:26.618Z,78.546143
2023-05-25T05:21:35.210Z,78.546143
2023-05-25T05:22:43.884Z,78.240967
2023-05-25T05:23:51.546Z,78.442383
2023-05-25T05:25:01.201Z,78.100586
2023-05-25T05:26:09.853Z,78.204346
2023-05-25T05:27:19.496Z,77.89917
2023-05-25T05:28:27.188Z,77.459717
2023-05-25T05:29:36.868Z,77.294922
2023-05-25T05:30:46.617Z,77.600098
2023-05-25T05:31:55.302Z,77.600098
2023-05-25T05:33:04.059Z,77.89917
2023-05-25T05:34:11.604Z,78.137207
2023-05-25T05:35:20.262Z,78.338623
2023-05-25T05:36:29.964Z,78.137207
2023-05-25T05:37:40.615Z,78.68042
2023-05-25T05:38:49.296Z,78.546143
2023-05-25T05:39:58.959Z,78.546143
2023-05-25T05:41:07.639Z,78.546143
2023-05-25T05:42:16.325Z,78.442383
2023-05-25T05:43:25.008Z,78.68042
2023-05-25T05:44:33.646Z,79.223633
2023-05-25T05:45:43.459Z,79.492188
2023-05-25T05:46:52.141Z,79.833984
2023-05-25T05:47:59.704Z,79.833984
2023-05-25T05:49:09.342Z,79.79126
2023-05-25T05:50:19.004Z,79.290771
2023-05-25T05:51:28.676Z,79.351807
2023-05-25T05:52:37.375Z,78.845215
2023-05-25T05:53:46.107Z,78.948975
2023-05-25T05:54:54.746Z,78.405762
2023-05-25T05:56:02.401Z,78.100586
2023-05-25T05:57:10.070Z,78.881836
2023-05-25T05:58:19.763Z,79.150391
2023-05-25T05:59:29.483Z,79.150391
2023-05-25T06:00:38.157Z,78.546143
2023-05-25T06:01:46.820Z,78.747559
2023-05-25T06:02:56.687Z,78.546143
2023-05-25T06:04:06.181Z,78.845215
2023-05-25T06:05:14.954Z,78.747559
2023-05-25T06:06:24.622Z,78.338623
2023-05-25T06:07:33.290Z,78.845215
2023-05-25T06:08:41.947Z,78.747559
2023-05-25T06:09:50.626Z,78.881836
2023-05-25T06:10:59.317Z,79.388428
2023-05-25T06:12:07.972Z,79.492188
2023-05-25T06:13:17.668Z,79.589844
2023-05-25T06:14:28.439Z,79.89502
2023-05-25T06:15:34.008Z,79.79126
2023-05-25T06:16:43.872Z,80.096436
2023-05-25T06:17:52.392Z,79.455566
2023-05-25T06:19:02.092Z,79.693604
2023-05-25T06:20:11.789Z,80.438232
2023-05-25T06:21:20.433Z,80.639648
2023-05-25T06:22:30.106Z,80.096436
2023-05-25T06:23:37.760Z,79.693604
2023-05-25T06:24:46.457Z,79.553223
2023-05-25T06:25:56.141Z,79.046631
2023-05-25T06:27:04.803Z,78.607178
2023-05-25T06:28:14.507Z,78.503418
2023-05-25T06:29:24.187Z,78.405762
2023-05-25T06:30:32.887Z,78.546143
2023-05-25T06:31:42.571Z,78.747559
2023-05-25T06:32:50.272Z,78.503418
2023-05-25T06:33:58.925Z,78.063965
2023-05-25T06:35:08.677Z,77.966309
2023-05-25T06:36:17.316Z,78.204346
2023-05-25T06:37:25.972Z,78.204346
2023-05-25T06:38:34.654Z,78.405762
2023-05-25T06:39:44.317Z,78.405762
2023-05-25T06:40:54.063Z,77.966309
2023-05-25T06:42:01.720Z,77.764893
2023-05-25T06:43:09.409Z,77.697754
2023-05-25T06:44:19.062Z,78.204346
2023-05-25T06:45:27.705Z,78.607178
2023-05-25T06:46:37.425Z,78.710938
2023-05-25T06:47:46.081Z,78.747559
2023-05-25T06:48:54.755Z,78.948975
2023-05-25T06:50:04.492Z,78.845215
2023-05-25T06:51:13.226Z,78.643799
2023-05-25T06:52:21.858Z,78.808594
2023-05-25T06:53:31.560Z,78.710938
2023-05-25T06:54:42.258Z,78.302002
2023-05-25T06:55:50.924Z,78.204346
2023-05-25T06:56:59.673Z,78.405762
2023-05-25T06:58:09.342Z,78.369141
2023-05-25T06:59:18.002Z,77.966309
2023-05-25T07:00:26.827Z,77.862549
2023-05-25T07:01:36.429Z,77.764893
2023-05-25T07:02:46.100Z,78.063965
2023-05-25T07:03:54.756Z,77.764893
2023-05-25T07:05:04.444Z,77.459717
2023-05-25T07:06:13.076Z,78.265381
2023-05-25T07:07:22.834Z,77.801514
2023-05-25T07:08:32.478Z,77.862549
2023-05-25T07:09:42.149Z,77.661133
2023-05-25T07:10:50.875Z,77.764893
2023-05-25T07:11:59.520Z,77.459717
2023-05-25T07:13:08.189Z,77.258301
2023-05-25T07:14:17.881Z,77.355957
2023-05-25T07:15:27.567Z,77.319336
2023-05-25T07:16:36.313Z,77.020264
2023-05-25T07:17:44.915Z,77.154541
2023-05-25T07:18:53.600Z,77.355957
2023-05-25T07:20:04.322Z,77.258301
2023-05-25T07:21:12.956Z,77.020264
2023-05-25T07:22:21.613Z,76.983643
2023-05-25T07:23:31.337Z,76.782227
2023-05-25T07:24:39.952Z,76.678467
2023-05-25T07:25:49.652Z,76.177979
2023-05-25T07:26:57.297Z,75.939941
2023-05-25T07:28:06.981Z,75.671387
2023-05-25T07:29:16.736Z,75.671387
2023-05-25T07:30:24.411Z,76.11084
2023-05-25T07:31:32.104Z,76.751709
2023-05-25T07:32:41.802Z,77.191162
2023-05-25T07:33:51.483Z,76.916504
2023-05-25T07:35:00.262Z,76.580811
2023-05-25T07:36:08.940Z,76.177979
2023-05-25T07:37:17.608Z,76.580811
2023-05-25T07:38:27.354Z,75.872803
2023-05-25T07:39:36.073Z,75.537109
2023-05-25T07:40:44.731Z,75.671387
2023-05-25T07:41:54.428Z,75.634766
2023-05-25T07:43:03.155Z,75.500488
2023-05-25T07:44:13.819Z,75.097656
2023-05-25T07:45:22.517Z,74.389648
2023-05-25T07:46:32.223Z,74.188232
2023-05-25T07:47:41.839Z,74.89624
2023-05-25T07:48:50.564Z,74.79248
2023-05-25T07:50:00.214Z,74.188232
2023-05-25T07:51:10.910Z,75.128174
2023-05-25T07:52:20.565Z,75.500488
2023-05-25T07:53:29.269Z,74.554443
2023-05-25T07:54:37.995Z,74.053955
2023-05-25T07:55:47.810Z,73.852539
2023-05-25T07:56:57.253Z,74.291992
2023-05-25T07:58:05.953Z,74.627686
2023-05-25T07:59:13.624Z,75.195312
2023-05-25T08:00:23.351Z,74.493408
2023-05-25T08:01:33.007Z,74.188232
2023-05-25T08:02:42.762Z,74.456787
2023-05-25T08:03:51.404Z,74.255371
2023-05-25T08:05:01.198Z,74.017334
2023-05-25T08:06:11.829Z,73.919678
2023-05-25T08:07:20.503Z,73.413086
2023-05-25T08:08:29.187Z,73.413086
2023-05-25T08:09:38.839Z,73.614502
2023-05-25T08:10:47.568Z,73.919678
2023-05-25T08:12:08.105Z,74.151611
2023-05-25T08:13:07.877Z,73.815918
2023-05-25T08:14:16.579Z,74.017334
2023-05-25T08:15:26.261Z,73.986816
2023-05-25T08:16:34.023Z,74.456787
2023-05-25T08:17:42.687Z,74.151611
2023-05-25T08:18:52.381Z,73.748779
2023-05-25T08:20:01.098Z,73.950195
2023-05-25T08:21:09.760Z,74.353027
2023-05-25T08:22:18.421Z,74.255371
2023-05-25T08:23:27.160Z,74.255371
2023-05-25T08:24:36.815Z,73.815918
2023-05-25T08:25:45.601Z,73.31543
2023-05-25T08:26:55.338Z,73.114014
2023-05-25T08:28:04.875Z,73.413086
2023-05-25T08:29:13.547Z,73.449707
2023-05-25T08:30:22.186Z,73.651123
2023-05-25T08:31:30.948Z,73.852539
2023-05-25T08:32:39.582Z,74.017334
2023-05-25T08:33:49.246Z,74.084473
2023-05-25T08:34:56.979Z,73.614502
2023-05-25T08:36:04.645Z,73.681641
2023-05-25T08:37:14.328Z,73.077393
2023-05-25T08:38:24.056Z,73.175049
2023-05-25T08:39:34.981Z,73.21167
2023-05-25T08:40:43.461Z,73.376465
2023-05-25T08:41:53.172Z,73.077393
2023-05-25T08:43:02.839Z,72.839355
2023-05-25T08:44:12.582Z,72.473145
2023-05-25T08:45:34.027Z,72.741699
2023-05-25T08:46:32.870Z,72.436523
2023-05-25T08:47:42.607Z,72.473145
2023-05-25T08:48:51.280Z,72.674561
2023-05-25T08:49:59.917Z,72.570801
2023-05-25T08:51:10.184Z,73.144531
2023-05-25T08:52:20.860Z,72.540283
2023-05-25T08:53:28.877Z,72.637939
2023-05-25T08:54:38.558Z,72.137451
2023-05-25T08:55:48.305Z,72.839355
2023-05-25T08:56:56.966Z,72.875977
2023-05-25T08:58:06.716Z,72.772217
2023-05-25T08:59:15.434Z,72.973633
2023-05-25T09:00:25.055Z,73.651123
2023-05-25T09:01:33.776Z,73.815918
2023-05-25T09:02:42.479Z,74.017334
2023-05-25T09:03:52.123Z,73.21167
2023-05-25T09:04:59.803Z,73.345947
2023-05-25T09:06:07.675Z,73.919678
2023-05-25T09:07:17.662Z,73.681641
2023-05-25T09:08:27.329Z,73.144531
2023-05-25T09:09:34.950Z,73.852539
2023-05-25T09:10:44.649Z,74.420166
2023-05-25T09:11:53.323Z,73.614502
2023-05-25T09:13:13.123Z,73.681641
2023-05-25T09:14:13.611Z,73.480225
2023-05-25T09:15:22.514Z,72.875977
2023-05-25T09:16:31.109Z,72.808838
2023-05-25T09:17:39.819Z,73.278809
2023-05-25T09:18:49.416Z,73.077393
2023-05-25T09:19:59.194Z,72.137451
2023-05-25T09:21:07.806Z,72.271729
2023-05-25T09:22:17.493Z,72.875977
2023-05-25T09:23:26.175Z,72.637939
2023-05-25T09:24:35.840Z,72.436523
2023-05-25T09:25:45.503Z,72.235107
2023-05-25T09:26:54.161Z,72.570801
2023-05-25T09:28:17.516Z,72.973633
2023-05-25T09:29:14.546Z,73.144531
2023-05-25T09:30:23.191Z,72.741699
2023-05-25T09:31:32.986Z,72.637939
2023-05-25T09:32:41.555Z,72.637939
2023-05-25T09:33:50.212Z,72.540283
2023-05-25T09:34:59.875Z,72.302246
2023-05-25T09:36:08.515Z,72.10083
2023-05-25T09:37:18.290Z,72.406006
2023-05-25T09:38:28.038Z,72.070312
2023-05-25T09:39:36.501Z,72.070312
2023-05-25T09:40:46.422Z,71.466064
2023-05-25T09:41:55.823Z,71.734619
2023-05-25T09:43:04.480Z,70.629883
2023-05-25T09:44:14.134Z,70.123291
2023-05-25T09:45:22.925Z,70.629883
2023-05-25T09:46:32.725Z,70.428467
2023-05-25T09:47:41.359Z,70.526123
2023-05-25T09:48:50.912Z,70.959473
2023-05-25T09:50:00.560Z,70.861816
2023-05-25T09:51:09.292Z,71.063232
2023-05-25T09:52:16.935Z,71.228027
2023-05-25T09:53:26.589Z,70.526123
2023-05-25T09:54:35.228Z,70.19043
2023-05-25T09:56:55.585Z,70.825195
2023-05-25T09:58:04.231Z,70.562744
2023-05-25T09:59:13.893Z,71.697998
2023-05-25T10:00:22.559Z,71.966553
2023-05-25T10:01:31.274Z,71.734619
2023-05-25T10:02:40.978Z,71.09375
2023-05-25T10:03:59.961Z,70.458984
2023-05-25T10:05:00.816Z,70.227051
2023-05-25T10:06:09.450Z,69.824219
2023-05-25T10:07:19.101Z,69.122314
2023-05-25T10:08:29.152Z,68.688965
2023-05-25T10:09:36.413Z,68.487549
2023-05-25T10:10:45.516Z,68.487549
2023-05-25T10:11:54.812Z,68.286133
2023-05-25T10:13:03.557Z,68.084717
2023-05-25T10:14:12.232Z,68.823242
2023-05-25T10:15:21.895Z,69.122314
2023-05-25T10:16:31.634Z,68.823242
2023-05-25T10:17:41.317Z,69.091797
2023-05-25T10:18:50.917Z,68.487549
2023-05-25T10:20:00.686Z,68.188477
2023-05-25T10:21:10.327Z,68.554688
2023-05-25T10:22:19.988Z,68.151855
2023-05-25T10:23:28.672Z,67.919922
2023-05-25T10:24:37.352Z,67.419434
2023-05-25T10:25:46.057Z,67.553711
2023-05-25T10:26:55.709Z,67.553711
2023-05-25T10:28:05.389Z,67.523193
2023-05-25T10:29:15.045Z,66.918945
2023-05-25T10:30:24.702Z,67.022705
2023-05-25T10:31:33.449Z,67.321777
2023-05-25T10:32:42.112Z,67.218018
2023-05-25T10:33:52.133Z,66.821289
2023-05-25T10:35:00.413Z,67.419434
2023-05-25T10:36:11.407Z,67.553711
2023-05-25T10:37:18.936Z,67.883301
2023-05-25T10:38:26.622Z,68.054199
2023-05-25T10:39:36.311Z,68.255615
2023-05-25T10:40:44.970Z,68.188477
2023-05-25T10:41:53.629Z,68.585205
2023-05-25T10:43:02.320Z,68.42041
2023-05-25T10:44:12.038Z,68.719482
2023-05-25T10:45:21.728Z,69.189453
2023-05-25T10:46:30.402Z,68.652344
2023-05-25T10:47:38.121Z,68.95752
2023-05-25T10:48:47.792Z,67.956543
2023-05-25T10:49:57.463Z,68.054199
2023-05-25T10:51:08.964Z,68.054199
2023-05-25T10:52:16.900Z,68.31665
2023-05-25T10:53:25.474Z,68.719482
2023-05-25T10:54:34.174Z,68.719482
2023-05-25T10:55:43.075Z,69.024658
2023-05-25T10:56:52.477Z,68.890381
2023-05-25T10:58:00.183Z,69.152832
2023-05-25T10:59:08.966Z,70.562744
2023-05-25T11:00:18.680Z,70.458984
2023-05-25T11:01:27.364Z,69.921875
2023-05-25T11:02:36.996Z,69.421387
2023-05-25T11:03:46.777Z,69.488525
2023-05-25T11:04:56.407Z,68.756104
2023-05-25T11:06:06.426Z,68.756104
2023-05-25T11:07:15.322Z,68.353271
2023-05-25T11:08:25.000Z,68.255615
2023-05-25T11:09:34.680Z,68.457031
2023-05-25T11:10:44.338Z,67.718506
2023-05-25T11:11:53.020Z,67.523193
2023-05-25T11:13:02.674Z,67.419434
2023-05-25T11:14:11.401Z,67.718506
2023-05-25T11:15:20.093Z,67.718506
2023-05-25T11:16:27.761Z,67.919922
2023-05-25T11:17:36.478Z,68.023682
2023-05-25T11:18:46.175Z,68.42041
2023-05-25T11:19:55.903Z,68.255615
2023-05-25T11:21:04.694Z,68.457031
2023-05-25T11:22:13.364Z,68.457031
2023-05-25T11:23:22.028Z,68.121338
2023-05-25T11:24:32.759Z,68.121338
2023-05-25T11:25:41.340Z,67.687988
2023-05-25T11:26:50.190Z,67.456055
2023-05-25T11:27:59.855Z,66.552734
2023-05-25T11:29:08.512Z,66.589355
2023-05-25T11:30:18.210Z,67.388916
2023-05-25T11:31:28.098Z,67.053223
2023-05-25T11:32:37.723Z,66.75415
2023-05-25T11:33:47.378Z,65.753174
2023-05-25T11:34:57.045Z,66.784668
2023-05-25T11:36:05.847Z,67.62085
2023-05-25T11:37:15.495Z,67.822266
2023-05-25T11:38:24.150Z,67.486572
2023-05-25T11:39:33.839Z,67.456055
2023-05-25T11:40:42.535Z,67.126465
2023-05-25T11:41:51.220Z,65.594482
2023-05-25T11:43:00.898Z,65.289307
2023-05-25T11:44:09.577Z,65.789795
2023-05-25T11:45:17.256Z,65.490723
2023-05-25T11:46:26.952Z,66.021729
2023-05-25T11:47:35.947Z,66.052246
2023-05-25T11:48:44.251Z,66.723633
2023-05-25T11:49:51.996Z,66.424561
2023-05-25T11:51:00.675Z,65.991211
2023-05-25T11:52:10.370Z,65.563965
2023-05-25T11:53:18.009Z,64.593506
2023-05-25T11:54:25.741Z,65.490723
2023-05-25T11:55:35.517Z,64.990234
2023-05-25T11:56:44.305Z,65.063477
2023-05-25T11:57:52.941Z,64.697266
2023-05-25T11:59:01.619Z,63.94043
2023-05-25T12:00:12.217Z,64.038086
2023-05-25T12:01:21.910Z,62.414551
2023-05-25T12:02:30.607Z,61.816406
2023-05-25T12:03:39.296Z,62.609863
2023-05-25T12:04:48.932Z,61.883545
2023-05-25T12:05:57.637Z,61.804199
2023-05-25T12:07:06.326Z,63.07373
2023-05-25T12:08:15.983Z,63.439941
2023-05-25T12:09:25.656Z,61.914062
2023-05-25T12:10:35.332Z,61.584473
2023-05-25T12:11:42.989Z,61.755371
2023-05-25T12:12:51.692Z,60.858154
2023-05-25T12:14:01.327Z,60.36377
2023-05-25T12:15:09.994Z,60.699463
2023-05-25T12:16:18.734Z,59.832764
2023-05-25T12:17:27.377Z,59.80835
2023-05-25T12:18:37.120Z,59.70459
2023-05-25T12:19:46.938Z,60.272217
2023-05-25T12:20:55.639Z,59.082031
2023-05-25T12:22:04.251Z,59.576416
2023-05-25T12:23:13.937Z,57.60498
2023-05-25T12:24:23.582Z,58.300781
2023-05-25T12:25:42.560Z,57.678223
2023-05-25T12:26:43.932Z,56.756592
2023-05-25T12:27:53.639Z,56.555176
2023-05-25T12:29:03.385Z,56.982422
2023-05-25T12:30:11.195Z,57.580566
2023-05-25T12:31:18.864Z,58.69751
2023-05-25T12:32:28.648Z,58.398438
2023-05-25T12:33:38.251Z,58.898926
2023-05-25T12:34:46.940Z,58.569336
2023-05-25T12:35:56.609Z,57.37915
2023-05-25T12:37:05.272Z,57.110596
2023-05-25T12:38:14.972Z,57.281494
2023-05-25T12:39:24.718Z,57.293701
2023-05-25T12:40:32.274Z,56.719971
2023-05-25T12:41:41.967Z,55.133057
2023-05-25T12:42:50.641Z,53.277588
2023-05-25T12:44:00.380Z,55.114746
2023-05-25T12:45:10.051Z,55.541992
2023-05-25T12:46:18.749Z,56.92749
2023-05-25T12:47:27.426Z,56.109619
2023-05-25T12:48:36.085Z,55.853271
2023-05-25T12:49:45.740Z,54.418945
2023-05-25T12:50:55.413Z,53.448486
2023-05-25T12:52:03.074Z,52.459717
2023-05-25T12:53:10.719Z,52.801514
2023-05-25T12:54:20.414Z,51.66626
2023-05-25T12:55:30.146Z,50.408936
2023-05-25T12:56:38.874Z,51.275635
2023-05-25T12:57:47.492Z,53.22876
2023-05-25T12:58:57.143Z,54.272461
2023-05-25T13:00:06.873Z,54.022217
2023-05-25T13:01:16.514Z,53.375244
2023-05-25T13:02:25.198Z,52.685547
2023-05-25T13:03:34.939Z,52.581787
2023-05-25T13:04:43.544Z,53.302002
2023-05-25T13:05:52.291Z,53.106689
2023-05-25T13:07:00.883Z,52.410889
2023-05-25T13:08:10.545Z,52.783203
2023-05-25T13:09:20.332Z,52.410889
2023-05-25T13:10:28.980Z,52.111816
2023-05-25T13:11:37.696Z,51.593018